Time;durP1;ratioP1;P1;durP2;ratioP2;P2;SDS_P1;SDS_P2;PMS_P1;PMS_P2;Temp;Humidity;BMP_temperature;BMP_pressure;BME280_temperature;BME280_humidity;BME280_pressure;Samples;Min_cycle;Max_cycle;Signal;HPM_P1;HPM_P2
2022/04/28 00:00:44;;;;;;;7.75;3.65;;;;;;;5.12;100.00;101338.34;1759576;81;21518;-43
2022/04/28 00:03:12;;;;;;;3.70;3.37;;;;;;;5.16;100.00;101341.41;1759695;81;20921;-43
2022/04/28 00:05:41;;;;;;;9.33;3.55;;;;;;;5.27;100.00;101345.89;1759641;81;20961;-43
2022/04/28 00:08:09;;;;;;;10.13;3.70;;;;;;;5.34;100.00;101347.72;1759544;81;21340;-43
2022/04/28 00:10:36;;;;;;;5.22;3.55;;;;;;;5.39;100.00;101340.95;1759617;81;21898;-43
2022/04/28 00:13:06;;;;;;;7.97;3.67;;;;;;;5.43;100.00;101341.48;1759583;81;21507;-43
2022/04/28 00:15:33;;;;;;;3.87;3.52;;;;;;;5.42;100.00;101353.84;1738063;81;20978;-43
2022/04/28 00:18:00;;;;;;;3.90;3.50;;;;;;;5.35;100.00;101353.30;1759621;81;20961;-43
2022/04/28 00:20:27;;;;;;;8.43;4.12;;;;;;;5.26;100.00;101351.87;1759668;81;20909;-43
2022/04/28 00:22:53;;;;;;;4.20;3.55;;;;;;;5.21;100.00;101351.78;1759637;81;21122;-43
2022/04/28 00:25:22;;;;;;;10.68;4.00;;;;;;;5.18;100.00;101354.29;1759531;81;20965;-43
2022/04/28 00:27:50;;;;;;;7.08;4.30;;;;;;;5.13;100.00;101356.77;1759603;81;20969;-43
2022/04/28 00:30:17;;;;;;;8.38;3.65;;;;;;;5.09;100.00;101356.70;1759527;81;20867;-43
2022/04/28 00:32:44;;;;;;;10.43;3.85;;;;;;;5.04;100.00;101360.45;1759560;81;20965;-43
2022/04/28 00:35:12;;;;;;;4.30;3.67;;;;;;;4.98;100.00;101352.64;1759593;81;21487;-43
2022/04/28 00:37:40;;;;;;;4.87;4.37;;;;;;;5.01;100.00;101355.27;1757408;80;21535;-44
2022/04/28 00:40:10;;;;;;;5.90;3.95;;;;;;;5.04;100.00;101354.03;1757220;81;20905;-43
2022/04/28 00:42:36;;;;;;;10.53;4.05;;;;;;;5.02;100.00;101358.28;1759596;81;21488;-44
2022/04/28 00:45:06;;;;;;;8.85;4.17;;;;;;;4.99;100.00;101354.38;1759823;81;21404;-44
2022/04/28 00:53:04;;;;;;;4.33;3.83;;;;;;;4.91;100.00;101355.50;1755605;81;20928;-44
2022/04/28 00:55:32;;;;;;;5.53;3.87;;;;;;;4.87;100.00;101360.13;1759358;81;20977;-44
2022/04/28 00:57:59;;;;;;;6.10;4.30;;;;;;;4.83;100.00;101356.63;1759653;81;20862;-44
2022/04/28 01:00:26;;;;;;;6.25;3.72;;;;;;;4.79;100.00;101355.25;1759525;81;21287;-44
2022/04/28 01:02:54;;;;;;;12.33;4.05;;;;;;;4.73;100.00;101359.86;1691359;81;20929;-44
2022/04/28 01:05:23;;;;;;;4.85;4.00;;;;;;;4.65;100.00;101359.70;1738729;81;20969;-44
2022/04/28 01:07:51;;;;;;;5.30;4.03;;;;;;;4.64;100.00;101354.52;1759555;81;20942;-44
2022/04/28 01:10:18;;;;;;;4.25;3.85;;;;;;;4.65;100.00;101354.97;1759590;81;20878;-44
2022/04/28 01:12:46;;;;;;;5.03;3.83;;;;;;;4.65;100.00;101351.13;1738263;81;21054;-44
2022/04/28 01:15:15;;;;;;;5.22;3.85;;;;;;;4.66;100.00;101355.02;1738371;81;20957;-44
2022/04/28 01:17:43;;;;;;;13.43;4.72;;;;;;;4.70;100.00;101359.80;1759577;81;20969;-44
2022/04/28 01:20:11;;;;;;;4.67;3.75;;;;;;;4.80;100.00;101356.58;1759551;81;20941;-44
2022/04/28 01:22:41;;;;;;;5.10;4.35;;;;;;;4.87;100.00;101359.70;1759546;81;20914;-44
2022/04/28 01:25:12;;;;;;;5.10;4.60;;;;;;;4.91;100.00;101355.91;1759435;81;20878;-44
2022/04/28 01:27:39;;;;;;;7.03;4.50;;;;;;;4.93;100.00;101347.84;1759598;81;21519;-44
2022/04/28 01:30:14;;;;;;;5.55;3.90;;;;;;;4.91;100.00;101353.34;1738235;81;21156;-45
2022/04/28 01:32:44;;;;;;;6.75;4.22;;;;;;;4.89;100.00;101353.33;1738810;81;21613;-45
2022/04/28 01:35:12;;;;;;;8.68;4.70;;;;;;;4.84;100.00;101349.81;1759594;81;20992;-45
2022/04/28 01:37:41;;;;;;;4.75;4.15;;;;;;;4.78;100.00;101350.55;1738363;81;21424;-45
2022/04/28 01:40:13;;;;;;;9.08;3.85;;;;;;;4.74;100.00;101351.33;1758851;81;20917;-45
2022/04/28 01:42:45;;;;;;;6.25;4.60;;;;;;;4.66;100.00;101350.28;1738112;81;20858;-45
2022/04/28 01:45:13;;;;;;;9.88;4.17;;;;;;;4.57;100.00;101362.09;1759316;81;21094;-45
2022/04/28 01:47:56;;;;;;;5.12;4.25;;;;;;;4.49;100.00;101359.80;1722147;81;20878;-45
2022/04/28 01:50:27;;;;;;;7.37;4.70;;;;;;;4.37;100.00;101356.95;1756567;81;20934;-44
2022/04/28 01:56:07;;;;;;;8.48;4.50;;;;;;;4.25;100.00;101352.03;1759567;81;20894;-44
2022/04/28 01:58:46;;;;;;;6.47;4.90;;;;;;;4.19;100.00;101344.20;1675876;81;21631;-46
2022/04/28 02:01:18;;;;;;;4.62;4.22;;;;;;;4.19;100.00;101344.20;1752623;81;20941;-44
2022/04/28 02:03:46;;;;;;;6.87;4.58;;;;;;;4.16;100.00;101344.11;1759476;81;21144;-45
2022/04/28 02:06:14;;;;;;;8.28;5.08;;;;;;;4.13;100.00;101347.89;1759404;81;20981;-44
2022/04/28 02:08:41;;;;;;;10.63;4.83;;;;;;;4.08;100.00;101351.66;1759546;81;21444;-45
2022/04/28 02:11:09;;;;;;;6.20;4.90;;;;;;;4.03;100.00;101349.38;1759515;81;21463;-44
2022/04/28 02:13:48;;;;;;;7.15;4.87;;;;;;;3.95;100.00;101346.66;1732176;81;20976;-45
2022/04/28 02:16:18;;;;;;;10.20;5.08;;;;;;;3.91;100.00;101350.39;1759237;81;22053;-45
2022/04/28 02:18:56;;;;;;;9.95;5.12;;;;;;;3.92;100.00;101347.88;1758024;81;20917;-45
2022/04/28 02:21:23;;;;;;;6.25;5.65;;;;;;;4.03;100.00;101347.70;1753999;80;21488;-45
2022/04/28 02:23:51;;;;;;;6.00;4.83;;;;;;;4.15;100.00;101356.48;1759494;81;20890;-45
2022/04/28 02:26:18;;;;;;;8.50;6.15;;;;;;;4.30;100.00;101356.83;1759467;81;20866;-45
2022/04/28 02:28:45;;;;;;;8.75;6.33;;;;;;;4.30;100.00;101356.83;1759608;81;21169;-45
2022/04/28 02:31:14;;;;;;;13.62;6.05;;;;;;;4.39;100.00;101357.85;1759434;81;20985;-45
2022/04/28 02:33:42;;;;;;;13.18;6.42;;;;;;;4.42;100.00;101356.23;1759878;81;21087;-45
2022/04/28 02:36:27;;;;;;;11.38;5.53;;;;;;;4.43;100.00;101357.11;1758256;81;20906;-45
2022/04/28 02:38:54;;;;;;;7.33;5.62;;;;;;;4.43;100.00;101365.66;1759647;81;21000;-42
2022/04/28 02:41:21;;;;;;;10.60;7.28;;;;;;;4.42;100.00;101370.73;1738023;81;21701;-43
2022/04/28 02:43:49;;;;;;;7.62;5.80;;;;;;;4.41;100.00;101367.32;1759636;81;20961;-42
2022/04/28 02:46:16;;;;;;;9.23;5.60;;;;;;;4.40;100.00;101374.97;1738154;81;20977;-45
2022/04/28 02:48:45;;;;;;;7.47;5.85;;;;;;;4.36;100.00;101370.61;1758150;81;20941;-45
2022/04/28 02:53:48;;;;;;;7.30;5.45;;;;;;;4.36;100.00;101373.17;1798516;79;22788;-44
2022/04/28 02:56:15;;;;;;;9.93;5.28;;;;;;;4.28;100.00;101373.00;1758039;80;20952;-44
2022/04/28 02:58:43;;;;;;;8.83;5.75;;;;;;;4.23;100.00;101375.48;1758029;81;20897;-44
2022/04/28 03:01:09;;;;;;;8.25;5.40;;;;;;;4.19;100.00;101371.12;1757971;81;20880;-44
2022/04/28 03:03:38;;;;;;;8.03;6.72;;;;;;;4.14;100.00;101371.41;1758109;81;20941;-44
2022/04/28 03:11:38;;;;;;;11.00;6.58;;;;;;;4.07;100.00;101381.95;1758255;81;21290;-44
2022/04/28 03:14:06;;;;;;;7.62;6.10;;;;;;;4.09;100.00;101387.98;1757964;81;20967;-44
2022/04/28 03:16:33;;;;;;;13.75;5.60;;;;;;;4.11;100.00;101382.87;1758191;81;21422;-44
2022/04/28 03:19:05;;;;;;;8.28;5.67;;;;;;;4.15;100.00;101384.67;1758068;81;20916;-44
2022/04/28 03:21:32;;;;;;;8.03;6.50;;;;;;;4.25;100.00;101381.91;1758102;81;20976;-44
2022/04/28 03:23:59;;;;;;;7.37;5.95;;;;;;;4.36;100.00;101388.16;1758059;81;21139;-44
2022/04/28 03:26:26;;;;;;;6.95;6.05;;;;;;;4.46;100.00;101386.23;1758059;81;20892;-44
2022/04/28 03:28:52;;;;;;;10.15;5.83;;;;;;;4.57;100.00;101389.02;1758115;81;20967;-44
2022/04/28 03:31:21;;;;;;;6.85;5.50;;;;;;;4.78;100.00;101397.13;1743346;81;21014;-44
2022/04/28 03:34:08;;;;;;;6.12;5.55;;;;;;;4.78;100.00;101397.13;1710148;82;20884;-44
2022/04/28 03:36:50;;;;;;;9.70;6.05;;;;;;;4.87;100.00;101395.62;1723610;83;21560;-44
2022/04/28 03:39:19;;;;;;;8.28;5.58;;;;;;;5.12;100.00;101399.95;1698500;84;21035;-44
2022/04/28 03:41:47;;;;;;;5.95;5.22;;;;;;;5.12;100.00;101399.95;1716630;83;20994;-43
2022/04/28 03:44:13;;;;;;;6.60;5.58;;;;;;;5.32;100.00;101399.47;1708949;84;20971;-44
2022/04/28 03:46:41;;;;;;;9.15;5.60;;;;;;;5.52;100.00;101399.82;1709134;83;20986;-44
2022/04/28 03:49:07;;;;;;;10.72;5.40;;;;;;;5.73;100.00;101392.04;1709048;83;21109;-45
2022/04/28 03:51:34;;;;;;;8.25;5.22;;;;;;;5.95;100.00;101394.96;1680878;84;21497;-44
2022/04/28 03:54:01;;;;;;;7.47;4.53;;;;;;;6.21;100.00;101397.09;1701981;83;21007;-45
2022/04/28 03:56:31;;;;;;;9.00;4.85;;;;;;;6.46;100.00;101404.75;1711920;83;20920;-45
2022/04/28 03:59:01;;;;;;;7.15;4.78;;;;;;;6.70;100.00;101398.20;1702183;83;20999;-45
2022/04/28 04:01:28;;;;;;;6.70;5.00;;;;;;;6.88;100.00;101400.98;1711893;83;21165;-45
2022/04/28 04:03:57;;;;;;;6.40;4.78;;;;;;;7.03;100.00;101399.01;1699873;84;20909;-45
2022/04/28 04:06:24;;;;;;;6.72;4.80;;;;;;;7.29;100.00;101406.59;1711232;83;21458;-45
2022/04/28 04:08:53;;;;;;;5.67;4.92;;;;;;;7.59;100.00;101411.19;1697698;84;21019;-45
2022/04/28 04:11:20;;;;;;;6.05;5.35;;;;;;;7.94;100.00;101412.76;1711147;82;20995;-45
2022/04/28 04:13:47;;;;;;;5.60;5.08;;;;;;;8.11;100.00;101414.17;1701438;84;21220;-45
2022/04/28 04:16:14;;;;;;;6.55;4.50;;;;;;;8.28;100.00;101411.28;1684887;83;20948;-45
2022/04/28 04:18:49;;;;;;;6.70;5.00;;;;;;;8.38;100.00;101408.75;1700731;84;21123;-45
2022/04/28 04:21:19;;;;;;;5.47;4.58;;;;;;;8.45;100.00;101407.52;1709943;83;20908;-45
2022/04/28 04:23:46;;;;;;;6.72;4.70;;;;;;;8.66;100.00;101414.09;1701612;84;21039;-45
2022/04/28 04:26:13;;;;;;;7.00;4.58;;;;;;;8.83;100.00;101417.63;1711156;83;21144;-46
2022/04/28 04:28:40;;;;;;;6.12;4.20;;;;;;;9.09;100.00;101421.14;1701451;84;20999;-45
2022/04/28 04:34:33;;;;;;;6.28;4.28;;;;;;;9.60;100.00;101433.77;1699513;84;21007;-45
2022/04/28 04:37:00;;;;;;;5.70;4.25;;;;;;;9.77;100.00;101435.08;1690592;83;20884;-45
2022/04/28 04:39:28;;;;;;;5.05;4.10;;;;;;;10.02;100.00;101432.49;1701443;84;20932;-45
2022/04/28 04:41:55;;;;;;;5.47;3.77;;;;;;;10.22;100.00;101438.05;1711033;83;20999;-45
2022/04/28 04:44:22;;;;;;;3.60;3.30;;;;;;;10.43;100.00;101441.09;1675569;84;21019;-45
2022/04/28 04:46:49;;;;;;;7.45;3.90;;;;;;;10.68;97.60;101450.51;1711198;83;20977;-45
2022/04/28 04:49:25;;;;;;;5.75;3.67;;;;;;;10.89;96.23;101450.89;1700247;84;20976;-45
2022/04/28 04:52:11;;;;;;;6.65;4.12;;;;;;;11.08;91.79;101450.37;1709840;83;21775;-44
2022/04/28 04:54:58;;;;;;;7.20;3.65;;;;;;;11.34;89.65;101451.96;1695867;84;20912;-45
2022/04/28 04:57:27;;;;;;;3.47;3.17;;;;;;;11.66;85.71;101443.11;1695985;84;20928;-44
2022/04/28 04:59:54;;;;;;;8.55;4.72;;;;;;;12.01;78.85;101441.14;1696043;84;21016;-44
2022/04/28 05:02:23;;;;;;;5.72;3.37;;;;;;;12.28;74.87;101448.25;1695983;84;21613;-45
2022/04/28 05:04:53;;;;;;;3.22;2.77;;;;;;;12.56;71.40;101444.06;1672821;84;21048;-44
2022/04/28 05:07:30;;;;;;;5.92;3.27;;;;;;;12.82;65.71;101446.38;1680832;84;21435;-44
2022/04/28 05:09:59;;;;;;;3.52;2.65;;;;;;;12.97;63.59;101447.92;1695904;84;21407;-45
2022/04/28 05:12:26;;;;;;;5.37;2.98;;;;;;;13.06;62.13;101441.75;1695867;84;20968;-45
2022/04/28 05:14:54;;;;;;;3.52;2.62;;;;;;;13.14;60.77;101454.66;1695660;84;20957;-44
2022/04/28 05:17:22;;;;;;;4.12;2.83;;;;;;;13.25;58.95;101457.08;1695557;84;21157;-45
2022/04/28 05:19:56;;;;;;;4.60;2.50;;;;;;;13.34;59.15;101459.58;1666429;83;21004;-46
2022/04/28 05:22:41;;;;;;;3.50;3.02;;;;;;;13.46;57.69;101454.22;1695989;84;21003;-44
2022/04/28 05:25:27;;;;;;;3.65;2.33;;;;;;;13.64;57.78;101458.73;1695743;84;20981;-44
2022/04/28 05:27:57;;;;;;;4.83;2.50;;;;;;;13.85;56.58;101458.83;1685016;84;21355;-44
2022/04/28 05:30:42;;;;;;;3.02;2.00;;;;;;;14.02;55.96;101457.70;1695997;84;21490;-45
2022/04/28 05:33:12;;;;;;;8.85;1.98;;;;;;;14.15;54.67;101462.25;1693405;84;21518;-45
2022/04/28 05:35:57;;;;;;;3.87;2.17;;;;;;;14.29;54.43;101462.88;1695951;84;21574;-45
2022/04/28 05:38:29;;;;;;;5.05;2.45;;;;;;;14.43;53.57;101467.84;1695937;84;20957;-45
2022/04/28 05:40:57;;;;;;;6.05;2.17;;;;;;;14.61;52.81;101469.66;1695896;84;21012;-45
2022/04/28 05:46:10;;;;;;;3.10;2.02;;;;;;;14.78;52.22;101473.30;1695899;84;20917;-45
2022/04/28 05:48:38;;;;;;;5.08;2.08;;;;;;;14.83;51.69;101474.06;1666558;84;21462;-45
2022/04/28 05:51:04;;;;;;;4.35;2.12;;;;;;;14.82;51.34;101472.34;1665925;84;21518;-45
2022/04/28 05:53:33;;;;;;;5.55;2.92;;;;;;;14.92;51.60;101473.86;1695830;84;21008;-45
2022/04/28 05:56:01;;;;;;;3.50;1.80;;;;;;;15.06;51.50;101472.73;1695592;84;21173;-43
2022/04/28 05:58:43;;;;;;;6.05;2.70;;;;;;;15.18;49.57;101472.45;1695796;83;20949;-44
2022/04/28 06:01:29;;;;;;;4.58;2.15;;;;;;;15.24;48.19;101470.16;1689350;84;20924;-45
2022/04/28 06:03:57;;;;;;;8.05;2.20;;;;;;;15.17;48.33;101477.26;1666286;84;21549;-45
2022/04/28 06:06:26;;;;;;;2.00;1.80;;;;;;;15.24;48.70;101472.77;1695955;84;20968;-45
2022/04/28 06:08:55;;;;;;;2.90;1.92;;;;;;;15.35;48.49;101477.76;1695959;84;20908;-45
2022/04/28 06:11:22;;;;;;;6.80;2.00;;;;;;;15.32;47.89;101477.83;1695870;83;20928;-45
2022/04/28 06:13:50;;;;;;;1.80;1.70;;;;;;;15.25;45.86;101470.58;1695921;84;20983;-45
2022/04/28 06:16:37;;;;;;;4.05;1.70;;;;;;;15.26;45.98;101473.59;1695823;84;21531;-46
2022/04/28 06:19:07;;;;;;;7.45;1.70;;;;;;;15.27;46.21;101480.53;1694818;84;20944;-46
2022/04/28 06:21:52;;;;;;;5.72;1.90;;;;;;;15.43;45.44;101484.11;1695746;83;21232;-46
2022/04/28 06:24:21;;;;;;;2.72;1.60;;;;;;;15.68;44.65;101486.16;1695713;84;21581;-46
2022/04/28 06:26:49;;;;;;;2.90;1.50;;;;;;;15.89;44.16;101478.28;1695798;84;20972;-45
2022/04/28 06:29:16;;;;;;;4.20;1.95;;;;;;;16.01;42.91;101481.88;1695776;83;21016;-46
2022/04/28 06:31:43;;;;;;;4.03;1.32;;;;;;;16.06;41.88;101478.73;1666030;84;21084;-44
2022/04/28 06:34:12;;;;;;;10.28;1.82;;;;;;;16.13;40.60;101487.24;1691531;84;21186;-44
2022/04/28 06:36:42;;;;;;;1.87;1.15;;;;;;;16.20;40.94;101486.64;1695742;84;20999;-45
2022/04/28 06:39:09;;;;;;;3.27;1.37;;;;;;;16.33;39.56;101488.06;1695766;84;21450;-45
2022/04/28 06:41:37;;;;;;;3.40;1.07;;;;;;;16.40;39.86;101490.03;1695882;84;21541;-45
2022/04/28 06:44:07;;;;;;;2.60;1.00;;;;;;;16.51;38.62;101489.32;1693811;84;21348;-45
2022/04/28 06:46:42;;;;;;;2.27;1.20;;;;;;;16.57;38.11;101485.69;1676990;84;21073;-45
2022/04/28 06:49:29;;;;;;;2.20;1.30;;;;;;;16.59;37.84;101489.55;1695821;84;20973;-45
2022/04/28 06:51:59;;;;;;;3.72;0.90;;;;;;;16.61;38.39;101486.45;1695700;83;21019;-45
2022/04/28 06:54:44;;;;;;;2.22;1.10;;;;;;;16.58;38.34;101483.48;1700916;83;20968;-44
2022/04/28 06:57:13;;;;;;;3.20;1.45;;;;;;;16.48;36.18;101477.64;1711045;84;21022;-44
2022/04/28 06:59:43;;;;;;;7.50;1.10;;;;;;;16.36;36.26;101476.66;1701369;84;21458;-44
2022/04/28 07:02:11;;;;;;;2.72;1.00;;;;;;;16.31;37.59;101486.38;1710942;83;21002;-45
2022/04/28 07:04:41;;;;;;;3.40;1.10;;;;;;;16.49;36.28;101486.33;1701300;84;21039;-45
2022/04/28 07:07:09;;;;;;;1.22;0.82;;;;;;;16.70;36.18;101481.42;1711182;84;20914;-45
2022/04/28 07:09:38;;;;;;;1.67;0.98;;;;;;;16.93;36.49;101482.93;1701500;84;21480;-44
2022/04/28 07:12:07;;;;;;;7.70;0.95;;;;;;;17.16;35.17;101480.13;1684929;84;20949;-47
2022/04/28 07:14:56;;;;;;;1.98;1.00;;;;;;;17.26;35.19;101483.33;1614920;87;20951;-46
2022/04/28 07:17:42;;;;;;;3.70;1.20;;;;;;;17.34;35.68;101476.55;1614973;88;21069;-44
2022/04/28 07:20:11;;;;;;;1.65;0.90;;;;;;;17.37;34.74;101471.23;1658251;84;20888;-44
2022/04/28 07:22:40;;;;;;;4.30;0.70;;;;;;;17.50;35.64;101473.01;1710986;82;20999;-44
2022/04/28 07:25:09;;;;;;;1.15;0.80;;;;;;;17.56;35.14;101483.74;1701211;84;21102;-45
2022/04/28 07:27:36;;;;;;;1.40;1.05;;;;;;;17.66;34.31;101480.75;1710956;84;20952;-45
2022/04/28 07:30:09;;;;;;;4.03;1.00;;;;;;;17.84;33.42;101478.92;1700029;84;21502;-45
2022/04/28 07:32:39;;;;;;;3.83;0.80;;;;;;;17.91;33.29;101472.57;1691343;84;21422;-45
2022/04/28 07:35:19;;;;;;;1.02;0.72;;;;;;;18.03;33.40;101478.73;1701303;84;20908;-45
2022/04/28 07:38:02;;;;;;;5.78;0.98;;;;;;;18.08;33.02;101473.34;1657858;85;21160;-44
2022/04/28 07:40:33;;;;;;;1.82;0.75;;;;;;;18.12;33.32;101478.03;1679246;85;21022;-44
2022/04/28 07:43:03;;;;;;;1.42;1.00;;;;;;;18.16;33.46;101474.40;1701529;84;21007;-44
2022/04/28 07:45:31;;;;;;;2.60;1.12;;;;;;;18.25;32.62;101476.69;1711080;83;21549;-45
2022/04/28 07:48:00;;;;;;;1.47;0.70;;;;;;;18.36;32.92;101469.33;1701547;84;21186;-45
2022/04/28 07:50:29;;;;;;;2.42;1.10;;;;;;;18.62;32.35;101460.98;1711175;83;21225;-45
2022/04/28 07:52:57;;;;;;;4.37;0.70;;;;;;;18.91;32.92;101464.29;1700519;83;20955;-45
2022/04/28 07:55:24;;;;;;;7.75;0.82;;;;;;;19.21;32.21;101460.13;1716959;83;20974;-47
2022/04/28 07:57:52;;;;;;;6.50;0.88;;;;;;;19.30;31.36;101461.53;1721622;83;20915;-46
2022/04/28 08:00:22;;;;;;;3.50;0.75;;;;;;;19.39;30.10;101468.20;1691725;84;20872;-46
2022/04/28 08:02:50;;;;;;;3.20;0.80;;;;;;;19.36;29.96;101465.70;1693005;84;21253;-46
2022/04/28 08:05:18;;;;;;;6.72;0.70;;;;;;;19.22;29.19;101468.39;1692719;84;21527;-46
2022/04/28 08:07:47;;;;;;;0.65;0.50;;;;;;;19.02;29.58;101470.48;1721595;83;21042;-46
2022/04/28 08:10:15;;;;;;;1.10;0.60;;;;;;;19.05;29.37;101469.48;1695360;83;20928;-47
2022/04/28 08:12:43;;;;;;;1.15;0.60;;;;;;;19.12;28.33;101470.98;1692719;84;21038;-46
2022/04/28 08:15:16;;;;;;;0.60;0.60;;;;;;;18.96;29.17;101473.31;1671154;84;21614;-46
2022/04/28 08:17:44;;;;;;;2.05;0.80;;;;;;;18.91;28.17;101466.05;1665978;84;20951;-46
2022/04/28 08:20:12;;;;;;;2.72;0.62;;;;;;;18.99;27.44;101467.11;1721983;83;21497;-44
2022/04/28 08:22:40;;;;;;;2.98;0.50;;;;;;;19.17;27.60;101469.03;1692736;84;21007;-45
2022/04/28 08:25:08;;;;;;;0.90;0.60;;;;;;;19.11;27.68;101477.15;1692819;84;21010;-45
2022/04/28 08:27:35;;;;;;;1.47;0.78;;;;;;;19.00;27.91;101467.50;1692965;84;21220;-45
2022/04/28 08:30:06;;;;;;;0.70;0.70;;;;;;;18.92;27.14;101469.94;1695079;83;20912;-45
2022/04/28 08:32:34;;;;;;;8.45;0.65;;;;;;;18.82;28.27;101465.95;1694894;83;20959;-45
2022/04/28 08:35:00;;;;;;;0.93;0.60;;;;;;;18.88;28.00;101465.72;1692563;83;20963;-47
2022/04/28 08:37:28;;;;;;;1.27;0.60;;;;;;;19.02;27.31;101468.30;1692656;84;21003;-47
2022/04/28 08:39:55;;;;;;;7.25;0.50;;;;;;;19.06;27.28;101455.02;1692670;84;21300;-47
2022/04/28 08:42:22;;;;;;;3.00;0.50;;;;;;;19.02;27.36;101461.73;1688430;84;20991;-46
2022/04/28 08:44:51;;;;;;;0.65;0.60;;;;;;;19.21;26.93;101456.19;1720335;83;20995;-47
2022/04/28 08:47:20;;;;;;;0.50;0.50;;;;;;;19.48;26.48;101453.38;1691997;84;20923;-46
2022/04/28 08:49:50;;;;;;;1.37;0.57;;;;;;;19.83;28.37;101462.05;1690275;83;21455;-47
2022/04/28 08:52:31;;;;;;;1.05;0.68;;;;;;;20.07;27.33;101455.40;1689639;84;21185;-46
2022/04/28 08:55:03;;;;;;;1.30;0.72;;;;;;;20.09;26.73;101458.37;1721048;83;21434;-47
2022/04/28 08:57:33;;;;;;;2.62;0.60;;;;;;;20.10;26.85;101446.94;1721611;83;21572;-46
2022/04/28 09:00:01;;;;;;;1.12;0.75;;;;;;;20.07;26.95;101448.83;1692615;84;21006;-45
2022/04/28 09:02:31;;;;;;;1.17;0.72;;;;;;;20.06;26.51;101455.01;1667110;84;20907;-45
2022/04/28 09:05:17;;;;;;;0.50;0.50;;;;;;;19.86;25.76;101451.41;1692749;84;22176;-45
2022/04/28 09:08:04;;;;;;;0.90;0.45;;;;;;;20.02;26.19;101452.95;1721760;82;20942;-47
2022/04/28 09:10:38;;;;;;;0.72;0.55;;;;;;;19.94;26.20;101441.93;1691284;82;20876;-46
2022/04/28 09:16:01;;;;;;;0.68;0.40;;;;;;;20.15;26.47;101449.34;1669830;84;21465;-45
2022/04/28 09:18:30;;;;;;;3.10;0.60;;;;;;;20.48;25.64;101437.42;1721543;82;21165;-46
2022/04/28 09:20:57;;;;;;;3.45;0.50;;;;;;;20.60;25.54;101443.46;1667037;84;20860;-45
2022/04/28 09:23:24;;;;;;;0.55;0.55;;;;;;;20.72;25.25;101438.10;1666043;84;20947;-45
2022/04/28 09:25:54;;;;;;;1.02;0.60;;;;;;;20.73;25.30;101442.88;1692622;83;20958;-47
2022/04/28 09:28:22;;;;;;;1.00;0.60;;;;;;;20.88;24.53;101444.86;1692733;84;20986;-46
2022/04/28 09:30:51;;;;;;;0.40;0.40;;;;;;;20.98;24.17;101443.09;1721691;83;21058;-46
2022/04/28 09:33:27;;;;;;;3.92;0.78;;;;;;;20.86;23.89;101453.28;1707182;83;20868;-47
2022/04/28 09:36:05;;;;;;;1.15;0.50;;;;;;;20.83;23.81;101452.08;1665572;83;21493;-47
2022/04/28 09:38:53;;;;;;;0.72;0.55;;;;;;;20.98;23.88;101454.50;1699006;83;21038;-46
2022/04/28 09:44:08;;;;;;;1.85;0.50;;;;;;;21.20;24.83;101447.74;1692563;84;21236;-45
2022/04/28 09:46:42;;;;;;;0.50;0.50;;;;;;;21.47;24.78;101453.05;1692677;84;20990;-46
2022/04/28 09:49:12;;;;;;;1.30;0.40;;;;;;;21.84;22.68;101453.04;1692619;84;20958;-47
2022/04/28 09:51:59;;;;;;;1.02;0.40;;;;;;;21.98;22.60;101450.57;1688718;83;20916;-48
2022/04/28 09:54:29;;;;;;;0.93;0.60;;;;;;;22.20;23.95;101448.16;1712558;82;20892;-46
2022/04/28 09:56:58;;;;;;;0.37;0.37;;;;;;;22.64;23.06;101442.34;1695056;84;21083;-47
2022/04/28 09:59:28;;;;;;;0.55;0.55;;;;;;;22.65;22.65;101436.13;1695889;84;21068;-47
2022/04/28 10:01:55;;;;;;;0.70;0.45;;;;;;;22.36;22.20;101434.56;1695852;84;20972;-45
2022/04/28 10:04:22;;;;;;;2.87;0.50;;;;;;;22.10;23.17;101445.14;1643744;84;20984;-46
2022/04/28 10:07:07;;;;;;;6.12;0.68;;;;;;;22.07;22.63;101437.39;1696103;83;20961;-46
2022/04/28 10:09:36;;;;;;;0.75;0.50;;;;;;;21.64;23.51;101446.98;1695913;84;21261;-46
2022/04/28 10:12:09;;;;;;;1.05;0.60;;;;;;;21.39;23.98;101452.13;1695796;84;21521;-46
2022/04/28 10:14:50;;;;;;;1.87;0.60;;;;;;;21.08;24.32;101448.30;1647672;84;21012;-45
2022/04/28 10:17:30;;;;;;;0.75;0.68;;;;;;;20.84;24.56;101460.84;1695908;84;20885;-46
2022/04/28 10:20:06;;;;;;;0.55;0.55;;;;;;;20.64;24.48;101452.91;1695979;84;20948;-45
2022/04/28 10:22:47;;;;;;;0.70;0.40;;;;;;;20.57;24.93;101448.83;1695205;84;21693;-46
2022/04/28 10:34:20;;;;;;;3.72;0.50;;;;;;;22.31;23.94;101448.91;1695941;84;20996;-46
2022/04/28 10:36:59;;;;;;;1.20;0.55;;;;;;;22.54;23.77;101450.35;1666356;84;21620;-46
2022/04/28 10:39:42;;;;;;;0.60;0.40;;;;;;;22.56;23.31;101447.64;1688218;84;20885;-45
2022/04/28 10:42:28;;;;;;;2.87;0.68;;;;;;;22.70;21.66;101442.94;1695258;84;20928;-46
2022/04/28 10:45:04;;;;;;;1.40;0.53;;;;;;;22.94;22.32;101444.69;1695923;84;20932;-46
2022/04/28 10:47:36;;;;;;;0.60;0.60;;;;;;;22.85;21.18;101447.84;1666697;84;20924;-46
2022/04/28 10:50:24;;;;;;;0.72;0.60;;;;;;;22.78;21.69;101440.27;1695921;84;21220;-46
2022/04/28 10:53:02;;;;;;;2.22;0.57;;;;;;;22.40;21.75;101436.55;1689230;84;20996;-46
2022/04/28 10:55:42;;;;;;;2.92;0.50;;;;;;;21.70;22.83;101438.80;1695710;83;20877;-46
2022/04/28 10:58:26;;;;;;;0.60;0.60;;;;;;;21.57;23.31;101439.84;1695917;84;21023;-47
2022/04/28 11:00:58;;;;;;;0.98;0.70;;;;;;;21.30;23.31;101431.49;1695977;83;21511;-46
2022/04/28 11:03:49;;;;;;;0.55;0.55;;;;;;;21.04;23.99;101435.78;1695790;84;21039;-46
2022/04/28 11:06:24;;;;;;;0.60;0.60;;;;;;;20.74;23.99;101428.81;1695521;84;20991;-46
2022/04/28 11:08:56;;;;;;;;;;;;;;;20.58;24.78;101426.87;1697393;84;20948;-46
2022/04/28 11:11:29;;;;;;;0.42;0.42;;;;;;;20.53;24.43;101428.86;1695938;84;20155;-46
2022/04/28 11:13:58;;;;;;;1.10;0.70;;;;;;;20.41;24.85;101422.85;1696071;84;21541;-46
2022/04/28 11:16:27;;;;;;;3.00;0.40;;;;;;;20.14;25.60;101424.47;1695884;83;21221;-46
2022/04/28 11:18:56;;;;;;;1.95;0.70;;;;;;;20.03;25.15;101423.13;1666578;84;20995;-46
2022/04/28 11:21:24;;;;;;;0.95;0.50;;;;;;;20.04;25.48;101422.22;1696028;83;21475;-45
2022/04/28 11:23:51;;;;;;;3.45;0.70;;;;;;;20.24;26.82;101418.73;1695931;83;21023;-45
2022/04/28 11:26:21;;;;;;;2.50;0.60;;;;;;;20.64;26.41;101418.72;1694641;84;20941;-47
2022/04/28 11:28:49;;;;;;;0.50;0.50;;;;;;;21.16;25.59;101417.23;1667058;84;20972;-46
2022/04/28 11:31:18;;;;;;;0.40;0.40;;;;;;;21.58;24.27;101415.66;1695906;84;20916;-47
2022/04/28 11:33:49;;;;;;;0.50;0.50;;;;;;;21.62;24.36;101422.50;1695848;83;21493;-45
2022/04/28 11:36:26;;;;;;;1.77;0.60;;;;;;;21.48;24.16;101415.28;1695902;84;21186;-46
2022/04/28 11:39:02;;;;;;;1.07;0.40;;;;;;;21.16;24.10;101415.05;1696488;83;20953;-47
2022/04/28 11:41:35;;;;;;;0.42;0.40;;;;;;;20.88;24.37;101417.23;1696112;84;20869;-44
2022/04/28 11:44:11;;;;;;;0.60;0.60;;;;;;;20.74;24.24;101413.03;1695889;84;21094;-46
2022/04/28 11:46:49;;;;;;;1.02;0.80;;;;;;;20.61;24.73;101413.61;1695748;83;21454;-47
2022/04/28 11:49:17;;;;;;;4.28;1.07;;;;;;;20.46;24.82;101410.34;1695856;83;20920;-47
2022/04/28 11:51:44;;;;;;;1.27;0.60;;;;;;;20.34;24.86;101406.49;1696028;84;21028;-45
2022/04/28 11:54:27;;;;;;;2.87;0.80;;;;;;;20.28;25.35;101403.66;1695962;83;21266;-46
2022/04/28 11:57:10;;;;;;;3.95;0.53;;;;;;;20.13;25.03;101405.67;1695669;84;20913;-47
2022/04/28 11:59:39;;;;;;;1.27;0.50;;;;;;;20.09;25.41;101397.93;1695987;84;20913;-46
2022/04/28 12:02:32;;;;;;;0.55;0.50;;;;;;;20.16;24.98;101397.17;1695902;83;20956;-46
2022/04/28 12:05:01;;;;;;;1.05;0.72;;;;;;;20.08;24.78;101399.30;1696139;84;21554;-46
2022/04/28 12:07:32;;;;;;;5.67;0.50;;;;;;;20.57;24.83;101388.34;1695944;84;21506;-47
2022/04/28 12:15:30;;;;;;;1.22;0.60;;;;;;;21.27;23.93;101393.47;1695998;84;20968;-48
2022/04/28 12:21:06;;;;;;;1.42;0.60;;;;;;;20.50;24.81;101393.05;1696029;83;21012;-47
2022/04/28 12:23:39;;;;;;;0.55;0.40;;;;;;;20.21;24.98;101403.55;1695951;84;20949;-47
2022/04/28 12:26:08;;;;;;;5.25;0.40;;;;;;;19.93;25.32;101391.14;1695541;83;20953;-47
2022/04/28 12:28:39;;;;;;;3.70;0.60;;;;;;;19.88;26.36;101390.94;1695916;84;21558;-47